sensor_id;sensor_type;location;lat;lon;timestamp;pressure;altitude;pressure_sealevel;temperature;humidity
53647;BME280;39550;52.230;5.194;2023-01-29T00:01:05;102786.75;;;2.57;84.08
53647;BME280;39550;52.230;5.194;2023-01-29T00:03:31;102835.88;;;2.92;84.02
53647;BME280;39550;52.230;5.194;2023-01-29T00:05:56;102852.91;;;3.04;84.05
53647;BME280;39550;52.230;5.194;2023-01-29T00:08:21;102843.53;;;3.03;84.39
53647;BME280;39550;52.230;5.194;2023-01-29T00:10:47;102867.06;;;3.13;84.39
53647;BME280;39550;52.230;5.194;2023-01-29T00:13:12;102869.06;;;3.17;84.04
53647;BME280;39550;52.230;5.194;2023-01-29T00:15:38;102854.91;;;3.09;83.85
53647;BME280;39550;52.230;5.194;2023-01-29T00:18:03;102827.38;;;2.91;83.93
53647;BME280;39550;52.230;5.194;2023-01-29T00:20:29;102863.09;;;3.16;84.29
53647;BME280;39550;52.230;5.194;2023-01-29T00:22:55;102845.41;;;3.06;84.13
53647;BME280;39550;52.230;5.194;2023-01-29T00:25:20;102821.47;;;2.92;84.24
53647;BME280;39550;52.230;5.194;2023-01-29T00:27:46;102839.75;;;2.98;83.86
53647;BME280;39550;52.230;5.194;2023-01-29T00:30:11;102874.16;;;3.17;83.93
53647;BME280;39550;52.230;5.194;2023-01-29T00:32:38;102848.06;;;3.08;84.33
53647;BME280;39550;52.230;5.194;2023-01-29T00:35:04;102839.19;;;3.02;83.86
53647;BME280;39550;52.230;5.194;2023-01-29T00:37:30;102853.16;;;3.08;84.57
53647;BME280;39550;52.230;5.194;2023-01-29T00:39:55;102846.50;;;3.10;84.31
53647;BME280;39550;52.230;5.194;2023-01-29T00:42:21;102836.97;;;3.07;83.83
53647;BME280;39550;52.230;5.194;2023-01-29T00:45:05;102850.25;;;3.15;84.15
53647;BME280;39550;52.230;5.194;2023-01-29T00:47:31;102820.91;;;2.96;84.06
53647;BME280;39550;52.230;5.194;2023-01-29T00:50:00;102845.81;;;3.12;84.12
53647;BME280;39550;52.230;5.194;2023-01-29T00:52:26;102837.31;;;3.12;84.09
53647;BME280;39550;52.230;5.194;2023-01-29T00:54:53;102821.25;;;3.01;84.26
53647;BME280;39550;52.230;5.194;2023-01-29T00:57:20;102831.88;;;3.07;83.90
53647;BME280;39550;52.230;5.194;2023-01-29T00:59:45;102792.69;;;2.93;84.32
53647;BME280;39550;52.230;5.194;2023-01-29T01:02:10;102836.75;;;3.16;84.17
53647;BME280;39550;52.230;5.194;2023-01-29T01:04:54;102823.47;;;3.08;83.96
53647;BME280;39550;52.230;5.194;2023-01-29T01:07:20;102807.53;;;2.99;84.36
53647;BME280;39550;52.230;5.194;2023-01-29T01:09:45;102821.56;;;3.05;83.85
53647;BME280;39550;52.230;5.194;2023-01-29T01:12:29;102829.88;;;3.15;83.90
53647;BME280;39550;52.230;5.194;2023-01-29T01:14:55;102811.19;;;3.02;84.31
53647;BME280;39550;52.230;5.194;2023-01-29T01:17:20;102820.59;;;3.03;83.82
53647;BME280;39550;52.230;5.194;2023-01-29T01:19:45;102842.63;;;3.15;84.60
53647;BME280;39550;52.230;5.194;2023-01-29T01:22:14;102841.84;;;3.16;84.16
53647;BME280;39550;52.230;5.194;2023-01-29T01:24:39;102836.09;;;3.06;84.14
53647;BME280;39550;52.230;5.194;2023-01-29T01:27:05;102835.63;;;3.00;83.84
53647;BME280;39550;52.230;5.194;2023-01-29T01:29:30;102820.69;;;2.93;84.25
53647;BME280;39550;52.230;5.194;2023-01-29T01:31:56;102792.84;;;2.83;83.96
53647;BME280;39550;52.230;5.194;2023-01-29T01:34:21;102857.78;;;3.13;84.13
53647;BME280;39550;52.230;5.194;2023-01-29T01:36:47;102847.25;;;3.09;84.15
53647;BME280;39550;52.230;5.194;2023-01-29T01:39:13;102832.53;;;3.04;83.98
53647;BME280;39550;52.230;5.194;2023-01-29T01:41:38;102833.53;;;3.06;84.41
53647;BME280;39550;52.230;5.194;2023-01-29T01:44:04;102842.63;;;3.15;84.15
53647;BME280;39550;52.230;5.194;2023-01-29T01:46:35;102838.28;;;3.14;83.87
53647;BME280;39550;52.230;5.194;2023-01-29T01:49:15;102840.06;;;3.15;84.41
53647;BME280;39550;52.230;5.194;2023-01-29T01:51:46;102830.13;;;3.06;83.98
53647;BME280;39550;52.230;5.194;2023-01-29T01:54:14;102845.94;;;3.14;83.38
53647;BME280;39550;52.230;5.194;2023-01-29T01:56:44;102828.00;;;3.00;84.11
53647;BME280;39550;52.230;5.194;2023-01-29T01:59:16;102848.06;;;3.08;84.15
53647;BME280;39550;52.230;5.194;2023-01-29T02:01:46;102827.44;;;3.04;83.94
53647;BME280;39550;52.230;5.194;2023-01-29T02:04:17;102841.19;;;3.06;84.13
53647;BME280;39550;52.230;5.194;2023-01-29T02:07:06;102863.75;;;3.14;84.07
53647;BME280;39550;52.230;5.194;2023-01-29T02:09:53;102819.16;;;2.95;84.09
53647;BME280;39550;52.230;5.194;2023-01-29T02:12:20;102844.16;;;3.13;83.72
53647;BME280;39550;52.230;5.194;2023-01-29T02:14:45;102833.53;;;3.06;83.83
53647;BME280;39550;52.230;5.194;2023-01-29T02:17:14;102839.06;;;3.13;83.86
53647;BME280;39550;52.230;5.194;2023-01-29T02:25:30;102848.38;;;3.12;84.41
53647;BME280;39550;52.230;5.194;2023-01-29T02:28:05;102853.38;;;3.11;84.36
53647;BME280;39550;52.230;5.194;2023-01-29T02:30:45;102796.81;;;2.79;84.23
53647;BME280;39550;52.230;5.194;2023-01-29T02:33:47;102846.06;;;3.03;84.24
53647;BME280;39550;52.230;5.194;2023-01-29T02:36:17;102859.31;;;3.11;83.93
53647;BME280;39550;52.230;5.194;2023-01-29T02:38:59;102852.13;;;3.05;84.45
53647;BME280;39550;52.230;5.194;2023-01-29T02:41:41;102855.69;;;3.08;84.41
53647;BME280;39550;52.230;5.194;2023-01-29T02:46:59;102841.75;;;3.02;84.36
53647;BME280;39550;52.230;5.194;2023-01-29T02:49:32;102854.13;;;3.10;84.39
53647;BME280;39550;52.230;5.194;2023-01-29T02:52:02;102853.38;;;3.11;84.39
53647;BME280;39550;52.230;5.194;2023-01-29T02:54:30;102852.47;;;3.10;83.91
53647;BME280;39550;52.230;5.194;2023-01-29T02:57:00;102858.47;;;3.11;83.81
53647;BME280;39550;52.230;5.194;2023-01-29T02:59:37;102846.50;;;3.10;84.18
53647;BME280;39550;52.230;5.194;2023-01-29T03:02:11;102844.72;;;3.09;83.99
53647;BME280;39550;52.230;5.194;2023-01-29T03:04:45;102844.81;;;3.10;84.02
53647;BME280;39550;52.230;5.194;2023-01-29T03:07:18;102831.00;;;3.06;84.09
53647;BME280;39550;52.230;5.194;2023-01-29T03:10:11;102835.44;;;3.09;84.21
53647;BME280;39550;52.230;5.194;2023-01-29T03:12:39;102832.78;;;3.08;84.48
53647;BME280;39550;52.230;5.194;2023-01-29T03:15:08;102839.63;;;3.09;83.89
53647;BME280;39550;52.230;5.194;2023-01-29T03:18:01;102832.97;;;3.11;83.92
53647;BME280;39550;52.230;5.194;2023-01-29T03:20:31;102829.44;;;3.09;84.27
53647;BME280;39550;52.230;5.194;2023-01-29T03:23:03;102826.88;;;3.09;83.78
53647;BME280;39550;52.230;5.194;2023-01-29T03:25:30;102827.69;;;3.08;84.15
53647;BME280;39550;52.230;5.194;2023-01-29T03:28:16;102824.22;;;3.07;83.95
53647;BME280;39550;52.230;5.194;2023-01-29T03:31:06;102803.75;;;3.05;83.85
53647;BME280;39550;52.230;5.194;2023-01-29T03:34:16;102803.09;;;3.08;84.40
53647;BME280;39550;52.230;5.194;2023-01-29T03:39:14;102801.31;;;3.07;84.67
53647;BME280;39550;52.230;5.194;2023-01-29T03:41:58;102800.44;;;3.06;84.60
53647;BME280;39550;52.230;5.194;2023-01-29T03:47:07;102795.44;;;3.08;84.04
53647;BME280;39550;52.230;5.194;2023-01-29T03:52:18;102785.16;;;3.06;84.29
53647;BME280;39550;52.230;5.194;2023-01-29T03:55:09;102791.00;;;3.05;83.97
53647;BME280;39550;52.230;5.194;2023-01-29T04:00:28;102784.13;;;3.04;84.74
53647;BME280;39550;52.230;5.194;2023-01-29T04:03:16;102776.63;;;3.06;84.36
53647;BME280;39550;52.230;5.194;2023-01-29T04:05:49;102770.63;;;3.05;84.13
53647;BME280;39550;52.230;5.194;2023-01-29T04:08:20;102783.38;;;3.05;84.37
53647;BME280;39550;52.230;5.194;2023-01-29T04:10:55;102785.91;;;3.05;84.09
53647;BME280;39550;52.230;5.194;2023-01-29T04:13:23;102784.28;;;3.06;83.90
53647;BME280;39550;52.230;5.194;2023-01-29T04:15:55;102780.06;;;3.06;84.45
53647;BME280;39550;52.230;5.194;2023-01-29T04:18:27;102774.84;;;3.05;84.24
53647;BME280;39550;52.230;5.194;2023-01-29T04:20:52;102778.28;;;3.05;84.02
53647;BME280;39550;52.230;5.194;2023-01-29T04:23:25;102771.41;;;3.04;83.97
53647;BME280;39550;52.230;5.194;2023-01-29T04:28:50;102767.13;;;3.03;84.04
53647;BME280;39550;52.230;5.194;2023-01-29T04:31:18;102768.53;;;3.00;84.25
53647;BME280;39550;52.230;5.194;2023-01-29T04:36:43;102760.34;;;3.04;84.38
53647;BME280;39550;52.230;5.194;2023-01-29T04:39:17;102752.41;;;2.99;84.20
53647;BME280;39550;52.230;5.194;2023-01-29T04:44:22;102738.53;;;2.96;83.94
53647;BME280;39550;52.230;5.194;2023-01-29T04:47:13;102745.94;;;3.04;84.07
53647;BME280;39550;52.230;5.194;2023-01-29T04:52:50;102743.38;;;3.04;84.40
53647;BME280;39550;52.230;5.194;2023-01-29T04:55:28;102734.00;;;3.03;84.41
53647;BME280;39550;52.230;5.194;2023-01-29T04:58:11;102729.69;;;3.02;84.50
53647;BME280;39550;52.230;5.194;2023-01-29T05:00:43;102685.25;;;2.73;84.07
53647;BME280;39550;52.230;5.194;2023-01-29T05:03:12;102703.72;;;2.83;84.51
53647;BME280;39550;52.230;5.194;2023-01-29T05:05:40;102728.91;;;3.03;84.43
53647;BME280;39550;52.230;5.194;2023-01-29T05:08:07;102722.81;;;3.01;84.26
53647;BME280;39550;52.230;5.194;2023-01-29T05:10:34;102723.81;;;3.03;84.09
53647;BME280;39550;52.230;5.194;2023-01-29T05:13:01;102716.28;;;2.93;84.14
53647;BME280;39550;52.230;5.194;2023-01-29T05:15:34;102699.59;;;2.85;84.29
53647;BME280;39550;52.230;5.194;2023-01-29T05:18:00;102719.03;;;2.96;83.85
53647;BME280;39550;52.230;5.194;2023-01-29T05:20:30;102738.19;;;3.03;84.29
53647;BME280;39550;52.230;5.194;2023-01-29T05:22:57;102741.53;;;3.02;84.23
53647;BME280;39550;52.230;5.194;2023-01-29T05:25:26;102733.00;;;3.01;84.44
53647;BME280;39550;52.230;5.194;2023-01-29T05:27:52;102727.38;;;2.94;84.13
53647;BME280;39550;52.230;5.194;2023-01-29T05:30:38;102695.06;;;2.81;84.46
53647;BME280;39550;52.230;5.194;2023-01-29T05:33:11;102725.34;;;3.01;84.09
53647;BME280;39550;52.230;5.194;2023-01-29T05:35:37;102713.75;;;2.93;84.24
53647;BME280;39550;52.230;5.194;2023-01-29T05:38:03;102687.13;;;2.76;83.95
53647;BME280;39550;52.230;5.194;2023-01-29T05:40:28;102686.47;;;2.79;84.32
53647;BME280;39550;52.230;5.194;2023-01-29T05:42:53;102707.34;;;2.86;84.30
53647;BME280;39550;52.230;5.194;2023-01-29T05:45:22;102693.09;;;2.77;84.27
53647;BME280;39550;52.230;5.194;2023-01-29T05:47:47;102663.06;;;2.59;84.45
53647;BME280;39550;52.230;5.194;2023-01-29T05:50:13;102709.22;;;2.89;84.00
53647;BME280;39550;52.230;5.194;2023-01-29T05:52:39;102697.84;;;2.84;84.05
53647;BME280;39550;52.230;5.194;2023-01-29T05:55:06;102726.13;;;3.00;84.45
53647;BME280;39550;52.230;5.194;2023-01-29T05:57:31;102705.03;;;2.89;83.91
53647;BME280;39550;52.230;5.194;2023-01-29T05:59:57;102648.19;;;2.65;84.18
53647;BME280;39550;52.230;5.194;2023-01-29T06:02:24;102708.28;;;3.00;84.25
53647;BME280;39550;52.230;5.194;2023-01-29T06:04:50;102653.72;;;2.71;84.11
53647;BME280;39550;52.230;5.194;2023-01-29T06:07:17;102699.88;;;3.01;84.14
53647;BME280;39550;52.230;5.194;2023-01-29T06:09:42;102646.28;;;2.75;84.09
53647;BME280;39550;52.230;5.194;2023-01-29T06:12:08;102677.13;;;2.91;84.17
53647;BME280;39550;52.230;5.194;2023-01-29T06:14:33;102670.72;;;2.84;84.52
53647;BME280;39550;52.230;5.194;2023-01-29T06:17:00;102617.81;;;2.55;84.43
53647;BME280;39550;52.230;5.194;2023-01-29T06:19:28;102631.16;;;2.64;83.87
53647;BME280;39550;52.230;5.194;2023-01-29T06:21:53;102659.44;;;2.81;83.90
53647;BME280;39550;52.230;5.194;2023-01-29T06:24:22;102612.16;;;2.59;84.14
53647;BME280;39550;52.230;5.194;2023-01-29T06:26:50;102652.22;;;2.87;84.62
53647;BME280;39550;52.230;5.194;2023-01-29T06:29:16;102607.06;;;2.59;84.52
53647;BME280;39550;52.230;5.194;2023-01-29T06:31:41;102673.22;;;2.96;84.13
53647;BME280;39550;52.230;5.194;2023-01-29T06:34:10;102651.22;;;2.85;84.65
53647;BME280;39550;52.230;5.194;2023-01-29T06:36:38;102604.50;;;2.59;84.06
53647;BME280;39550;52.230;5.194;2023-01-29T06:39:12;102605.50;;;2.61;84.19
53647;BME280;39550;52.230;5.194;2023-01-29T06:41:38;102682.81;;;3.00;84.29
53647;BME280;39550;52.230;5.194;2023-01-29T06:44:03;102693.91;;;3.01;84.41
53647;BME280;39550;52.230;5.194;2023-01-29T06:46:29;102681.84;;;2.98;84.26
53647;BME280;39550;52.230;5.194;2023-01-29T06:48:57;102688.63;;;2.98;84.25
53647;BME280;39550;52.230;5.194;2023-01-29T06:51:23;102687.06;;;3.00;84.28
53647;BME280;39550;52.230;5.194;2023-01-29T06:53:49;102685.38;;;3.00;83.85
53647;BME280;39550;52.230;5.194;2023-01-29T06:56:16;102686.19;;;2.99;84.46
53647;BME280;39550;52.230;5.194;2023-01-29T06:58:41;102674.22;;;2.98;84.17
53647;BME280;39550;52.230;5.194;2023-01-29T07:01:10;102672.63;;;3.00;84.31
53647;BME280;39550;52.230;5.194;2023-01-29T07:03:36;102667.44;;;2.99;83.91
53647;BME280;39550;52.230;5.194;2023-01-29T07:06:02;102658.94;;;2.98;84.55
53647;BME280;39550;52.230;5.194;2023-01-29T07:08:28;102660.72;;;2.99;84.28
53647;BME280;39550;52.230;5.194;2023-01-29T07:11:00;102664.03;;;2.98;84.33
53647;BME280;39550;52.230;5.194;2023-01-29T07:13:26;102672.44;;;2.97;84.32
53647;BME280;39550;52.230;5.194;2023-01-29T07:15:51;102677.53;;;2.97;84.58
53647;BME280;39550;52.230;5.194;2023-01-29T07:18:17;102670.66;;;2.96;84.17
53647;BME280;39550;52.230;5.194;2023-01-29T07:20:42;102679.31;;;2.98;83.98
53647;BME280;39550;52.230;5.194;2023-01-29T07:23:10;102679.31;;;2.98;84.07
53647;BME280;39550;52.230;5.194;2023-01-29T07:25:36;102668.91;;;2.95;84.34
53647;BME280;39550;52.230;5.194;2023-01-29T07:28:02;102671.56;;;2.97;84.18
53647;BME280;39550;52.230;5.194;2023-01-29T07:30:28;102672.44;;;2.97;84.13
53647;BME280;39550;52.230;5.194;2023-01-29T07:33:00;102674.97;;;2.97;83.89
53647;BME280;39550;52.230;5.194;2023-01-29T07:35:26;102678.44;;;2.98;84.13
53647;BME280;39550;52.230;5.194;2023-01-29T07:37:51;102670.66;;;2.96;84.38
53647;BME280;39550;52.230;5.194;2023-01-29T07:40:17;102670.66;;;2.96;84.38
53647;BME280;39550;52.230;5.194;2023-01-29T07:42:42;102668.25;;;2.98;83.91
53647;BME280;39550;52.230;5.194;2023-01-29T07:45:09;102665.47;;;2.95;84.12
53647;BME280;39550;52.230;5.194;2023-01-29T07:47:35;102671.47;;;2.95;84.37
53647;BME280;39550;52.230;5.194;2023-01-29T07:50:00;102651.19;;;2.97;84.23
53647;BME280;39550;52.230;5.194;2023-01-29T07:52:28;102646.00;;;2.95;84.12
53647;BME280;39550;52.230;5.194;2023-01-29T07:54:53;102648.53;;;2.95;83.83
53647;BME280;39550;52.230;5.194;2023-01-29T07:57:19;102644.31;;;2.96;84.36
53647;BME280;39550;52.230;5.194;2023-01-29T07:59:44;102637.56;;;2.96;83.74
53647;BME280;39550;52.230;5.194;2023-01-29T08:02:09;102632.59;;;2.98;84.39
53647;BME280;39550;52.230;5.194;2023-01-29T08:04:35;102627.28;;;2.95;83.98
53647;BME280;39550;52.230;5.194;2023-01-29T08:07:00;102623.84;;;2.94;84.42
53647;BME280;39550;52.230;5.194;2023-01-29T08:09:25;102634.81;;;2.93;84.37
53647;BME280;39550;52.230;5.194;2023-01-29T08:11:51;102646.09;;;2.97;83.92
53647;BME280;39550;52.230;5.194;2023-01-29T08:14:16;102625.97;;;2.88;84.04
53647;BME280;39550;52.230;5.194;2023-01-29T08:16:42;102631.06;;;2.88;83.90
53647;BME280;39550;52.230;5.194;2023-01-29T08:19:07;102589.34;;;2.61;84.36
53647;BME280;39550;52.230;5.194;2023-01-29T08:21:32;102640.00;;;2.95;84.17
53647;BME280;39550;52.230;5.194;2023-01-29T08:23:58;102641.47;;;2.91;84.21
53647;BME280;39550;52.230;5.194;2023-01-29T08:26:23;102636.78;;;2.97;83.93
53647;BME280;39550;52.230;5.194;2023-01-29T08:28:50;102635.00;;;2.96;84.03
53647;BME280;39550;52.230;5.194;2023-01-29T08:31:17;102573.50;;;2.65;83.39
53647;BME280;39550;52.230;5.194;2023-01-29T08:33:47;102555.81;;;2.54;84.16
53647;BME280;39550;52.230;5.194;2023-01-29T08:36:13;102622.28;;;2.96;84.03
53647;BME280;39550;52.230;5.194;2023-01-29T08:38:38;102586.41;;;2.80;84.09
53647;BME280;39550;52.230;5.194;2023-01-29T08:41:04;102573.03;;;2.70;84.22
53647;BME280;39550;52.230;5.194;2023-01-29T08:43:30;102533.38;;;2.49;83.79
53647;BME280;39550;52.230;5.194;2023-01-29T08:45:55;102570.69;;;2.73;83.85
53647;BME280;39550;52.230;5.194;2023-01-29T08:48:21;102583.84;;;2.80;83.58
53647;BME280;39550;52.230;5.194;2023-01-29T08:50:47;102588.38;;;2.84;84.20
53647;BME280;39550;52.230;5.194;2023-01-29T08:53:12;102604.06;;;2.90;83.72
53647;BME280;39550;52.230;5.194;2023-01-29T08:55:39;102608.88;;;2.99;83.46
53647;BME280;39550;52.230;5.194;2023-01-29T08:58:12;102555.31;;;2.72;83.61
53647;BME280;39550;52.230;5.194;2023-01-29T09:00:37;102555.41;;;2.73;83.72
53647;BME280;39550;52.230;5.194;2023-01-29T09:03:06;102565.13;;;2.79;83.99
53647;BME280;39550;52.230;5.194;2023-01-29T09:05:33;102522.25;;;2.60;83.77
53647;BME280;39550;52.230;5.194;2023-01-29T09:07:58;102575.31;;;2.79;83.52
53647;BME280;39550;52.230;5.194;2023-01-29T09:10:24;102579.94;;;2.85;83.81
53647;BME280;39550;52.230;5.194;2023-01-29T09:12:49;102575.03;;;2.88;83.60
53647;BME280;39550;52.230;5.194;2023-01-29T09:15:15;102563.59;;;2.81;84.00
53647;BME280;39550;52.230;5.194;2023-01-29T09:17:40;102567.09;;;2.83;83.86
53647;BME280;39550;52.230;5.194;2023-01-29T09:20:07;102576.72;;;2.87;83.49
53647;BME280;39550;52.230;5.194;2023-01-29T09:22:33;102586.44;;;2.93;83.52
53647;BME280;39550;52.230;5.194;2023-01-29T09:24:58;102580.13;;;2.88;83.69
53647;BME280;39550;52.230;5.194;2023-01-29T09:27:24;102578.97;;;2.83;83.48
53647;BME280;39550;52.230;5.194;2023-01-29T09:30:04;102592.09;;;2.89;83.69
53647;BME280;39550;52.230;5.194;2023-01-29T09:32:33;102546.56;;;2.68;84.12
53647;BME280;39550;52.230;5.194;2023-01-29T09:35:01;102567.38;;;2.75;83.71
53647;BME280;39550;52.230;5.194;2023-01-29T09:37:27;102564.47;;;2.82;83.86
53647;BME280;39550;52.230;5.194;2023-01-29T09:39:52;102537.97;;;2.66;84.15
53647;BME280;39550;52.230;5.194;2023-01-29T09:42:29;102535.72;;;2.71;83.70
53647;BME280;39550;52.230;5.194;2023-01-29T09:47:44;102599.31;;;3.08;83.56
53647;BME280;39550;52.230;5.194;2023-01-29T09:50:27;102531.09;;;2.65;83.29
53647;BME280;39550;52.230;5.194;2023-01-29T09:55:44;102561.13;;;2.83;83.97
53647;BME280;39550;52.230;5.194;2023-01-29T09:58:35;102602.63;;;3.07;83.33
53647;BME280;39550;52.230;5.194;2023-01-29T10:15:19;102580.03;;;3.12;83.56
53647;BME280;39550;52.230;5.194;2023-01-29T10:21:10;102562.59;;;3.18;83.56
53647;BME280;39550;52.230;5.194;2023-01-29T10:23:45;102572.19;;;3.22;83.96
53647;BME280;39550;52.230;5.194;2023-01-29T10:26:28;102568.31;;;3.27;83.25
53647;BME280;39550;52.230;5.194;2023-01-29T10:28:55;102552.91;;;3.26;83.82
53647;BME280;39550;52.230;5.194;2023-01-29T10:33:53;102560.38;;;3.49;83.03
53647;BME280;39550;52.230;5.194;2023-01-29T10:36:22;102560.84;;;3.57;82.50
53647;BME280;39550;52.230;5.194;2023-01-29T10:38:56;102554.22;;;3.59;82.91
53647;BME280;39550;52.230;5.194;2023-01-29T10:44:36;102547.94;;;3.54;83.53
53647;BME280;39550;52.230;5.194;2023-01-29T10:47:30;102545.56;;;3.57;83.39
53647;BME280;39550;52.230;5.194;2023-01-29T10:52:55;102537.72;;;3.54;83.11
53647;BME280;39550;52.230;5.194;2023-01-29T10:58:38;102529.47;;;3.45;84.08
53647;BME280;39550;52.230;5.194;2023-01-29T11:01:08;102519.31;;;3.31;83.67
53647;BME280;39550;52.230;5.194;2023-01-29T11:03:34;102508.94;;;3.28;83.90
53647;BME280;39550;52.230;5.194;2023-01-29T11:06:31;102518.50;;;3.32;83.69
53647;BME280;39550;52.230;5.194;2023-01-29T11:09:20;102518.50;;;3.32;84.00
53647;BME280;39550;52.230;5.194;2023-01-29T11:12:02;102518.31;;;3.29;84.02
53647;BME280;39550;52.230;5.194;2023-01-29T11:14:54;102513.91;;;3.27;84.07
53647;BME280;39550;52.230;5.194;2023-01-29T11:17:24;102513.03;;;3.26;83.73
53647;BME280;39550;52.230;5.194;2023-01-29T11:19:51;102510.47;;;3.26;83.57
53647;BME280;39550;52.230;5.194;2023-01-29T11:22:25;102500.69;;;3.19;83.62
53647;BME280;39550;52.230;5.194;2023-01-29T11:25:16;102506.06;;;3.23;83.92
53647;BME280;39550;52.230;5.194;2023-01-29T11:28:02;102502.63;;;3.23;83.75
53647;BME280;39550;52.230;5.194;2023-01-29T11:30:31;102507.06;;;3.26;83.65
53647;BME280;39550;52.230;5.194;2023-01-29T11:35:29;102498.22;;;3.20;83.90
53647;BME280;39550;52.230;5.194;2023-01-29T11:40:40;102488.03;;;3.20;83.53
53647;BME280;39550;52.230;5.194;2023-01-29T11:43:29;102494.00;;;3.21;83.82
53647;BME280;39550;52.230;5.194;2023-01-29T11:45:58;102487.16;;;3.20;83.59
53647;BME280;39550;52.230;5.194;2023-01-29T11:48:45;102476.97;;;3.20;84.30
53647;BME280;39550;52.230;5.194;2023-01-29T11:51:23;102466.78;;;3.20;83.79
53647;BME280;39550;52.230;5.194;2023-01-29T11:53:57;102455.41;;;3.15;83.63
53647;BME280;39550;52.230;5.194;2023-01-29T11:58:58;102453.06;;;3.18;83.29
53647;BME280;39550;52.230;5.194;2023-01-29T12:01:37;102464.25;;;3.20;83.67
53647;BME280;39550;52.230;5.194;2023-01-29T12:04:20;102449.72;;;3.19;83.98
53647;BME280;39550;52.230;5.194;2023-01-29T12:06:48;102451.50;;;3.20;83.61
53647;BME280;39550;52.230;5.194;2023-01-29T12:09:18;102444.63;;;3.19;83.63
53647;BME280;39550;52.230;5.194;2023-01-29T12:11:45;102431.81;;;3.17;83.87
53647;BME280;39550;52.230;5.194;2023-01-29T12:14:27;102434.25;;;3.16;83.96
53647;BME280;39550;52.230;5.194;2023-01-29T12:16:55;102422.47;;;3.18;83.77
53647;BME280;39550;52.230;5.194;2023-01-29T12:19:45;102420.72;;;3.17;83.86
53647;BME280;39550;52.230;5.194;2023-01-29T12:25:07;102414.66;;;3.28;84.31
53647;BME280;39550;52.230;5.194;2023-01-29T12:27:59;102401.50;;;3.35;83.49
53647;BME280;39550;52.230;5.194;2023-01-29T12:35:41;102383.09;;;3.68;83.09
53647;BME280;39550;52.230;5.194;2023-01-29T12:38:18;102379.53;;;3.79;82.12
53647;BME280;39550;52.230;5.194;2023-01-29T12:40:59;102371.25;;;3.68;82.77
53647;BME280;39550;52.230;5.194;2023-01-29T12:43:47;102366.44;;;3.60;83.42
53647;BME280;39550;52.230;5.194;2023-01-29T12:46:23;102365.19;;;3.53;83.64
53647;BME280;39550;52.230;5.194;2023-01-29T12:48:51;102330.94;;;3.34;83.63
53647;BME280;39550;52.230;5.194;2023-01-29T12:51:22;102341.78;;;3.45;83.58
53647;BME280;39550;52.230;5.194;2023-01-29T12:53:56;102334.06;;;3.44;83.62
53647;BME280;39550;52.230;5.194;2023-01-29T12:56:41;102319.81;;;3.47;83.40
53647;BME280;39550;52.230;5.194;2023-01-29T12:59:27;102309.84;;;3.50;83.87
53647;BME280;39550;52.230;5.194;2023-01-29T13:02:00;102310.72;;;3.51;83.50
53647;BME280;39550;52.230;5.194;2023-01-29T13:04:35;102297.34;;;3.55;83.29
53647;BME280;39550;52.230;5.194;2023-01-29T13:07:14;102279.13;;;3.49;83.29
53647;BME280;39550;52.230;5.194;2023-01-29T13:09:42;102245.44;;;3.24;83.45
53647;BME280;39550;52.230;5.194;2023-01-29T13:12:18;102274.63;;;3.45;83.48
53647;BME280;39550;52.230;5.194;2023-01-29T13:14:56;102266.03;;;3.43;83.96
53647;BME280;39550;52.230;5.194;2023-01-29T13:17:32;102256.72;;;3.43;83.00
53647;BME280;39550;52.230;5.194;2023-01-29T13:20:07;102254.97;;;3.42;83.37
53647;BME280;39550;52.230;5.194;2023-01-29T13:22:37;102249.75;;;3.40;83.50
53647;BME280;39550;52.230;5.194;2023-01-29T13:25:04;102239.56;;;3.40;83.54
53647;BME280;39550;52.230;5.194;2023-01-29T13:27:32;102242.13;;;3.40;83.47
53647;BME280;39550;52.230;5.194;2023-01-29T13:29:58;102241.25;;;3.40;83.31
53647;BME280;39550;52.230;5.194;2023-01-29T13:32:26;102235.28;;;3.39;83.28
53647;BME280;39550;52.230;5.194;2023-01-29T13:35:03;102234.28;;;3.37;83.51
53647;BME280;39550;52.230;5.194;2023-01-29T13:37:34;102236.84;;;3.37;83.52
53647;BME280;39550;52.230;5.194;2023-01-29T13:40:03;102233.50;;;3.38;83.63
53647;BME280;39550;52.230;5.194;2023-01-29T13:45:05;102226.81;;;3.40;83.53
53647;BME280;39550;52.230;5.194;2023-01-29T13:47:39;102220.00;;;3.39;83.53
53647;BME280;39550;52.230;5.194;2023-01-29T13:53:01;102216.47;;;3.37;83.51
53647;BME280;39550;52.230;5.194;2023-01-29T13:55:32;102223.16;;;3.35;83.61
53647;BME280;39550;52.230;5.194;2023-01-29T14:01:08;102213.03;;;3.37;83.36
53647;BME280;39550;52.230;5.194;2023-01-29T14:03:45;102206.28;;;3.37;83.83
53647;BME280;39550;52.230;5.194;2023-01-29T14:06:37;102212.25;;;3.38;84.32
53647;BME280;39550;52.230;5.194;2023-01-29T14:14:49;102209.81;;;3.39;83.80
53647;BME280;39550;52.230;5.194;2023-01-29T14:17:16;102208.13;;;3.40;83.69
53647;BME280;39550;52.230;5.194;2023-01-29T14:19:50;102193.63;;;3.39;84.09
53647;BME280;39550;52.230;5.194;2023-01-29T14:22:22;102201.34;;;3.40;83.70
53647;BME280;39550;52.230;5.194;2023-01-29T14:24:56;102198.00;;;3.41;83.95
53647;BME280;39550;52.230;5.194;2023-01-29T14:27:23;102197.56;;;3.49;84.12
53647;BME280;39550;52.230;5.194;2023-01-29T14:29:58;102204.19;;;3.45;83.74
53647;BME280;39550;52.230;5.194;2023-01-29T14:32:25;102194.00;;;3.45;83.72
53647;BME280;39550;52.230;5.194;2023-01-29T14:35:00;102190.47;;;3.43;84.11
53647;BME280;39550;52.230;5.194;2023-01-29T14:37:38;102186.97;;;3.41;84.05
53647;BME280;39550;52.230;5.194;2023-01-29T14:45:31;102169.81;;;3.38;84.04
53647;BME280;39550;52.230;5.194;2023-01-29T14:50:39;102161.38;;;3.39;84.32
53647;BME280;39550;52.230;5.194;2023-01-29T14:53:09;102162.16;;;3.38;83.81
53647;BME280;39550;52.230;5.194;2023-01-29T14:55:36;102158.63;;;3.36;84.29
53647;BME280;39550;52.230;5.194;2023-01-29T14:58:03;102158.63;;;3.36;84.25
53647;BME280;39550;52.230;5.194;2023-01-29T15:00:32;102145.56;;;3.30;84.36
53647;BME280;39550;52.230;5.194;2023-01-29T15:02:59;102157.00;;;3.37;84.67